Portada
METAR-TAF:

METAR-TAF

Aeropuertos :

Huntsville, Alabama, Estados Unidos

latitud: 34-51-41N, longitud: 086-33-26W, altitud: 230 m

Observación

El informe se hizo hace 16 minutos, a las 00:15 UTC
Viento 3 kt del sureste
Temperatura 11°C
Humedad 94%
Presión 1018 hPa
Visibilidad: 11.3 km
Nubes dispersas a una altura de 1200 ft
Cielo cubierto a una altura de 2100 ft
lluvia ligera, neblina

METAR: KMDQ 250015Z AUTO 14003KT 7SM -RA BR SCT012 OVC021 11/10 A3007 RMK A02 T01090103

Hora: 18:31 (00:31 UTC)


TAF: falta

Observaciones y pronósticos meteorológicos de más de 4000 aeropuertos (mensajes METAR y TAF).

Los puntos amarillos y rojos representan las estaciones disponibles.

Ponga el ratón en el punto deseado para ver el nombre de la estación.

Haga clic para ver las observaciones y los pronósticos meteorológicos.

Para cambiar el mapa : haga clic en los botones verdes con una cruz de color negro para hacer un zoom, en el botón verde con un guión para alejar o en las flechas verdes para mapas adyacentes.


METAR-TAF: